Milwaukee, Wisconsin
Traffic Map
Current Weather Conditions
Milwaukee, Wisconsin
Clear Haze
Clear
21°
Feels Like: 21°
Wind Chill: 21° Ceiling: Unl
Heat Index: 21° Visibility: 5mi
Dew Point: 16° Wind: 3mph
Humidity: 81% Direction: 250° (WSW)
Pressure: 30.24in Gusts: 0mph
Raw Report DataKMKE 101052Z 25003KT 5SM HZ CLR M06/M09 A3024 RMK AO2 SLP253 T10611089 $
Traffic Incident Summary
Active as of:
Severity:
Category:
InformationThere was an issue retrieving the traffic information for this location. Please try a different location or try again shortly.
Advertisements